sensor_id;sensor_type;location;lat;lon;timestamp;P1;durP1;ratioP1;P2;durP2;ratioP2
16139;SDS011;8175;49.326;12.690;2023-07-24T03:57:46;7.93;;;5.53;;
16139;SDS011;8175;49.326;12.690;2023-07-24T04:06:17;7.63;;;6.17;;
16139;SDS011;8175;49.326;12.690;2023-07-24T04:12:32;10.00;;;6.90;;
16139;SDS011;8175;49.326;12.690;2023-07-24T04:25:42;8.13;;;6.20;;
16139;SDS011;8175;49.326;12.690;2023-07-24T04:28:07;8.97;;;7.00;;
16139;SDS011;8175;49.326;12.690;2023-07-24T04:30:33;12.13;;;6.00;;
16139;SDS011;8175;49.326;12.690;2023-07-24T04:32:59;8.23;;;6.37;;
16139;SDS011;8175;49.326;12.690;2023-07-24T04:35:26;6.77;;;5.87;;
16139;SDS011;8175;49.326;12.690;2023-07-24T04:45:50;6.40;;;5.40;;
16139;SDS011;8175;49.326;12.690;2023-07-24T04:48:15;7.57;;;6.00;;
16139;SDS011;8175;49.326;12.690;2023-07-24T04:50:41;7.27;;;5.77;;
16139;SDS011;8175;49.326;12.690;2023-07-24T04:53:06;9.17;;;6.47;;
16139;SDS011;8175;49.326;12.690;2023-07-24T04:55:32;6.43;;;5.20;;
16139;SDS011;8175;49.326;12.690;2023-07-24T04:57:58;8.87;;;6.97;;
16139;SDS011;8175;49.326;12.690;2023-07-24T05:00:23;7.20;;;5.73;;
16139;SDS011;8175;49.326;12.690;2023-07-24T05:02:49;6.60;;;5.30;;
16139;SDS011;8175;49.326;12.690;2023-07-24T05:05:15;6.87;;;5.60;;
16139;SDS011;8175;49.326;12.690;2023-07-24T05:07:40;7.97;;;5.90;;
16139;SDS011;8175;49.326;12.690;2023-07-24T05:10:06;6.87;;;5.07;;
16139;SDS011;8175;49.326;12.690;2023-07-24T05:12:32;6.30;;;5.20;;
16139;SDS011;8175;49.326;12.690;2023-07-24T05:14:58;6.60;;;5.20;;
16139;SDS011;8175;49.326;12.690;2023-07-24T05:17:23;6.67;;;4.93;;
16139;SDS011;8175;49.326;12.690;2023-07-24T05:19:49;6.63;;;5.00;;
16139;SDS011;8175;49.326;12.690;2023-07-24T05:22:14;5.93;;;5.07;;
16139;SDS011;8175;49.326;12.690;2023-07-24T05:24:40;7.43;;;5.90;;
16139;SDS011;8175;49.326;12.690;2023-07-24T05:27:06;7.03;;;5.33;;
16139;SDS011;8175;49.326;12.690;2023-07-24T05:29:32;6.10;;;5.37;;
16139;SDS011;8175;49.326;12.690;2023-07-24T05:31:57;6.60;;;5.30;;
16139;SDS011;8175;49.326;12.690;2023-07-24T05:34:24;8.10;;;5.90;;
16139;SDS011;8175;49.326;12.690;2023-07-24T05:36:49;8.23;;;5.73;;
16139;SDS011;8175;49.326;12.690;2023-07-24T05:39:15;7.20;;;5.60;;
16139;SDS011;8175;49.326;12.690;2023-07-24T05:41:41;6.50;;;5.80;;
16139;SDS011;8175;49.326;12.690;2023-07-24T05:44:06;7.10;;;5.27;;
16139;SDS011;8175;49.326;12.690;2023-07-24T05:46:32;6.73;;;5.73;;
16139;SDS011;8175;49.326;12.690;2023-07-24T05:48:58;6.73;;;5.43;;
16139;SDS011;8175;49.326;12.690;2023-07-24T05:51:25;8.07;;;5.93;;
16139;SDS011;8175;49.326;12.690;2023-07-24T05:53:51;6.40;;;5.03;;
16139;SDS011;8175;49.326;12.690;2023-07-24T05:56:16;7.23;;;5.70;;
16139;SDS011;8175;49.326;12.690;2023-07-24T05:58:42;6.43;;;5.57;;
16139;SDS011;8175;49.326;12.690;2023-07-24T06:01:08;7.27;;;5.67;;
16139;SDS011;8175;49.326;12.690;2023-07-24T06:03:35;8.00;;;6.13;;
16139;SDS011;8175;49.326;12.690;2023-07-24T06:06:01;8.63;;;6.30;;
16139;SDS011;8175;49.326;12.690;2023-07-24T06:08:27;9.37;;;6.00;;
16139;SDS011;8175;49.326;12.690;2023-07-24T06:10:52;8.57;;;5.57;;
16139;SDS011;8175;49.326;12.690;2023-07-24T06:13:18;5.50;;;4.93;;
16139;SDS011;8175;49.326;12.690;2023-07-24T06:15:46;7.70;;;6.43;;
16139;SDS011;8175;49.326;12.690;2023-07-24T06:18:12;8.33;;;5.97;;
16139;SDS011;8175;49.326;12.690;2023-07-24T06:20:38;7.27;;;5.83;;
16139;SDS011;8175;49.326;12.690;2023-07-24T06:23:04;7.30;;;5.90;;
16139;SDS011;8175;49.326;12.690;2023-07-24T06:25:30;7.90;;;5.60;;
16139;SDS011;8175;49.326;12.690;2023-07-24T06:27:56;9.33;;;6.00;;
16139;SDS011;8175;49.326;12.690;2023-07-24T06:30:22;6.87;;;5.47;;
16139;SDS011;8175;49.326;12.690;2023-07-24T06:32:47;6.33;;;5.20;;
16139;SDS011;8175;49.326;12.690;2023-07-24T06:35:13;6.80;;;5.60;;
16139;SDS011;8175;49.326;12.690;2023-07-24T06:37:39;7.53;;;5.40;;
16139;SDS011;8175;49.326;12.690;2023-07-24T06:40:05;8.30;;;5.93;;
16139;SDS011;8175;49.326;12.690;2023-07-24T06:42:32;6.60;;;5.90;;
16139;SDS011;8175;49.326;12.690;2023-07-24T06:44:58;5.88;;;4.93;;
16139;SDS011;8175;49.326;12.690;2023-07-24T06:47:24;7.07;;;5.65;;
16139;SDS011;8175;49.326;12.690;2023-07-24T06:49:50;6.28;;;5.60;;
16139;SDS011;8175;49.326;12.690;2023-07-24T06:52:16;6.43;;;5.07;;
16139;SDS011;8175;49.326;12.690;2023-07-24T06:54:42;6.43;;;5.53;;
16139;SDS011;8175;49.326;12.690;2023-07-24T06:57:07;7.23;;;6.20;;
16139;SDS011;8175;49.326;12.690;2023-07-24T06:59:33;7.40;;;5.83;;
16139;SDS011;8175;49.326;12.690;2023-07-24T07:01:59;7.50;;;5.65;;
16139;SDS011;8175;49.326;12.690;2023-07-24T07:04:24;6.85;;;5.88;;
16139;SDS011;8175;49.326;12.690;2023-07-24T07:06:50;6.05;;;4.93;;
16139;SDS011;8175;49.326;12.690;2023-07-24T07:09:15;7.07;;;5.75;;
16139;SDS011;8175;49.326;12.690;2023-07-24T07:11:41;6.47;;;5.78;;
16139;SDS011;8175;49.326;12.690;2023-07-24T07:14:08;6.30;;;5.68;;
16139;SDS011;8175;49.326;12.690;2023-07-24T07:16:34;6.97;;;5.95;;
16139;SDS011;8175;49.326;12.690;2023-07-24T07:19:00;8.23;;;5.63;;
16139;SDS011;8175;49.326;12.690;2023-07-24T07:21:26;7.60;;;5.50;;
16139;SDS011;8175;49.326;12.690;2023-07-24T07:23:51;7.57;;;5.72;;
16139;SDS011;8175;49.326;12.690;2023-07-24T07:26:17;9.02;;;6.03;;
16139;SDS011;8175;49.326;12.690;2023-07-24T07:28:43;7.65;;;5.65;;
16139;SDS011;8175;49.326;12.690;2023-07-24T07:31:12;7.85;;;7.00;;
16139;SDS011;8175;49.326;12.690;2023-07-24T07:33:37;7.88;;;6.10;;
16139;SDS011;8175;49.326;12.690;2023-07-24T07:36:03;10.07;;;6.88;;
16139;SDS011;8175;49.326;12.690;2023-07-24T07:38:30;7.60;;;6.25;;
16139;SDS011;8175;49.326;12.690;2023-07-24T07:40:56;8.27;;;6.25;;
16139;SDS011;8175;49.326;12.690;2023-07-24T07:43:22;7.72;;;6.18;;
16139;SDS011;8175;49.326;12.690;2023-07-24T07:45:48;8.82;;;6.13;;
16139;SDS011;8175;49.326;12.690;2023-07-24T07:48:13;8.85;;;6.22;;
16139;SDS011;8175;49.326;12.690;2023-07-24T07:50:39;8.07;;;6.30;;
16139;SDS011;8175;49.326;12.690;2023-07-24T07:53:05;6.03;;;5.43;;
16139;SDS011;8175;49.326;12.690;2023-07-24T07:55:31;6.97;;;6.15;;
16139;SDS011;8175;49.326;12.690;2023-07-24T07:57:56;7.47;;;6.07;;
16139;SDS011;8175;49.326;12.690;2023-07-24T08:00:22;7.18;;;5.85;;
16139;SDS011;8175;49.326;12.690;2023-07-24T08:02:48;6.50;;;5.72;;
16139;SDS011;8175;49.326;12.690;2023-07-24T08:05:13;7.05;;;5.95;;
16139;SDS011;8175;49.326;12.690;2023-07-24T08:07:40;8.35;;;6.57;;
16139;SDS011;8175;49.326;12.690;2023-07-24T08:10:06;9.10;;;6.70;;
16139;SDS011;8175;49.326;12.690;2023-07-24T08:12:32;7.47;;;6.75;;
16139;SDS011;8175;49.326;12.690;2023-07-24T08:14:58;8.80;;;7.25;;
16139;SDS011;8175;49.326;12.690;2023-07-24T08:17:24;7.57;;;5.78;;
16139;SDS011;8175;49.326;12.690;2023-07-24T08:19:49;7.50;;;6.57;;
16139;SDS011;8175;49.326;12.690;2023-07-24T08:22:15;8.52;;;6.50;;
16139;SDS011;8175;49.326;12.690;2023-07-24T08:24:40;8.68;;;7.30;;
16139;SDS011;8175;49.326;12.690;2023-07-24T08:27:06;8.63;;;7.10;;
16139;SDS011;8175;49.326;12.690;2023-07-24T08:29:32;7.30;;;6.60;;
16139;SDS011;8175;49.326;12.690;2023-07-24T08:31:59;7.93;;;6.97;;
16139;SDS011;8175;49.326;12.690;2023-07-24T08:34:25;9.30;;;6.68;;
16139;SDS011;8175;49.326;12.690;2023-07-24T08:36:51;9.30;;;7.03;;
16139;SDS011;8175;49.326;12.690;2023-07-24T08:39:16;7.93;;;6.65;;
16139;SDS011;8175;49.326;12.690;2023-07-24T08:41:42;8.35;;;6.05;;
16139;SDS011;8175;49.326;12.690;2023-07-24T08:44:08;9.38;;;5.78;;
16139;SDS011;8175;49.326;12.690;2023-07-24T08:46:37;7.25;;;6.22;;
16139;SDS011;8175;49.326;12.690;2023-07-24T08:49:06;7.43;;;6.18;;
16139;SDS011;8175;49.326;12.690;2023-07-24T08:51:36;7.85;;;6.13;;
16139;SDS011;8175;49.326;12.690;2023-07-24T08:54:03;8.47;;;6.97;;
16139;SDS011;8175;49.326;12.690;2023-07-24T08:56:29;7.80;;;6.83;;
16139;SDS011;8175;49.326;12.690;2023-07-24T08:58:55;8.40;;;6.53;;
16139;SDS011;8175;49.326;12.690;2023-07-24T09:01:21;9.00;;;6.47;;
16139;SDS011;8175;49.326;12.690;2023-07-24T09:03:47;9.80;;;6.73;;
16139;SDS011;8175;49.326;12.690;2023-07-24T09:06:12;8.30;;;6.97;;
16139;SDS011;8175;49.326;12.690;2023-07-24T09:08:39;10.63;;;7.53;;
16139;SDS011;8175;49.326;12.690;2023-07-24T09:11:07;9.60;;;6.83;;
16139;SDS011;8175;49.326;12.690;2023-07-24T09:13:35;9.70;;;7.10;;
16139;SDS011;8175;49.326;12.690;2023-07-24T09:16:02;9.77;;;7.03;;
16139;SDS011;8175;49.326;12.690;2023-07-24T09:18:41;9.07;;;7.27;;
16139;SDS011;8175;49.326;12.690;2023-07-24T09:21:08;8.70;;;7.13;;
16139;SDS011;8175;49.326;12.690;2023-07-24T09:23:34;9.83;;;7.00;;
16139;SDS011;8175;49.326;12.690;2023-07-24T09:26:04;8.97;;;6.97;;
16139;SDS011;8175;49.326;12.690;2023-07-24T09:28:31;10.47;;;8.00;;
16139;SDS011;8175;49.326;12.690;2023-07-24T09:30:58;9.27;;;6.87;;
16139;SDS011;8175;49.326;12.690;2023-07-24T09:33:34;9.40;;;6.83;;
16139;SDS011;8175;49.326;12.690;2023-07-24T09:36:01;9.57;;;6.87;;
16139;SDS011;8175;49.326;12.690;2023-07-24T09:38:28;9.27;;;7.17;;
16139;SDS011;8175;49.326;12.690;2023-07-24T09:40:55;9.50;;;8.27;;
16139;SDS011;8175;49.326;12.690;2023-07-24T09:43:21;10.17;;;7.77;;
16139;SDS011;8175;49.326;12.690;2023-07-24T09:45:52;10.53;;;7.77;;
16139;SDS011;8175;49.326;12.690;2023-07-24T09:48:19;7.90;;;7.10;;
16139;SDS011;8175;49.326;12.690;2023-07-24T09:50:47;9.63;;;6.60;;
16139;SDS011;8175;49.326;12.690;2023-07-24T09:56:18;7.93;;;6.63;;
16139;SDS011;8175;49.326;12.690;2023-07-24T09:58:45;10.13;;;7.87;;
16139;SDS011;8175;49.326;12.690;2023-07-24T10:01:14;8.97;;;7.17;;
16139;SDS011;8175;49.326;12.690;2023-07-24T10:03:47;9.53;;;7.17;;
16139;SDS011;8175;49.326;12.690;2023-07-24T10:06:17;8.13;;;6.83;;
16139;SDS011;8175;49.326;12.690;2023-07-24T10:08:43;7.83;;;6.37;;
16139;SDS011;8175;49.326;12.690;2023-07-24T10:11:12;7.73;;;6.73;;
16139;SDS011;8175;49.326;12.690;2023-07-24T10:13:39;8.97;;;7.13;;
16139;SDS011;8175;49.326;12.690;2023-07-24T10:16:06;9.50;;;7.10;;
16139;SDS011;8175;49.326;12.690;2023-07-24T10:18:32;8.67;;;6.60;;
16139;SDS011;8175;49.326;12.690;2023-07-24T10:21:00;9.10;;;6.73;;
16139;SDS011;8175;49.326;12.690;2023-07-24T10:23:26;7.50;;;6.10;;
16139;SDS011;8175;49.326;12.690;2023-07-24T10:25:52;8.60;;;6.77;;
16139;SDS011;8175;49.326;12.690;2023-07-24T10:28:17;8.27;;;6.43;;
16139;SDS011;8175;49.326;12.690;2023-07-24T10:30:44;6.88;;;5.57;;
16139;SDS011;8175;49.326;12.690;2023-07-24T10:33:10;7.10;;;5.93;;
16139;SDS011;8175;49.326;12.690;2023-07-24T10:38:12;6.10;;;4.88;;
16139;SDS011;8175;49.326;12.690;2023-07-24T10:40:40;6.35;;;5.28;;
16139;SDS011;8175;49.326;12.690;2023-07-24T10:43:07;5.75;;;4.85;;
16139;SDS011;8175;49.326;12.690;2023-07-24T10:45:40;6.20;;;5.05;;
16139;SDS011;8175;49.326;12.690;2023-07-24T10:48:14;6.30;;;5.20;;
16139;SDS011;8175;49.326;12.690;2023-07-24T10:50:41;5.82;;;4.95;;
16139;SDS011;8175;49.326;12.690;2023-07-24T10:53:09;5.90;;;4.95;;
16139;SDS011;8175;49.326;12.690;2023-07-24T10:55:36;5.85;;;5.22;;
16139;SDS011;8175;49.326;12.690;2023-07-24T10:58:02;6.28;;;5.22;;
16139;SDS011;8175;49.326;12.690;2023-07-24T11:00:28;6.20;;;5.20;;
16139;SDS011;8175;49.326;12.690;2023-07-24T11:02:54;6.80;;;5.07;;
16139;SDS011;8175;49.326;12.690;2023-07-24T11:05:23;6.05;;;4.75;;
16139;SDS011;8175;49.326;12.690;2023-07-24T11:07:49;5.60;;;5.03;;
16139;SDS011;8175;49.326;12.690;2023-07-24T11:10:15;5.13;;;4.63;;
16139;SDS011;8175;49.326;12.690;2023-07-24T11:12:42;7.13;;;5.43;;
16139;SDS011;8175;49.326;12.690;2023-07-24T11:15:08;5.38;;;4.88;;
16139;SDS011;8175;49.326;12.690;2023-07-24T11:17:34;6.20;;;4.35;;
16139;SDS011;8175;49.326;12.690;2023-07-24T11:20:08;4.80;;;4.13;;
16139;SDS011;8175;49.326;12.690;2023-07-24T11:22:38;4.85;;;4.40;;
16139;SDS011;8175;49.326;12.690;2023-07-24T11:25:05;4.65;;;4.18;;
16139;SDS011;8175;49.326;12.690;2023-07-24T11:27:31;4.30;;;3.90;;
16139;SDS011;8175;49.326;12.690;2023-07-24T11:29:57;5.03;;;4.20;;
16139;SDS011;8175;49.326;12.690;2023-07-24T11:32:23;4.85;;;4.15;;
16139;SDS011;8175;49.326;12.690;2023-07-24T11:34:49;4.78;;;4.38;;
16139;SDS011;8175;49.326;12.690;2023-07-24T11:37:16;5.45;;;4.70;;
16139;SDS011;8175;49.326;12.690;2023-07-24T11:39:43;5.75;;;5.25;;
16139;SDS011;8175;49.326;12.690;2023-07-24T11:42:20;5.55;;;4.05;;
16139;SDS011;8175;49.326;12.690;2023-07-24T11:44:45;4.53;;;4.05;;
16139;SDS011;8175;49.326;12.690;2023-07-24T11:47:11;5.93;;;4.95;;
16139;SDS011;8175;49.326;12.690;2023-07-24T11:49:36;5.38;;;4.55;;
16139;SDS011;8175;49.326;12.690;2023-07-24T11:52:03;4.80;;;4.30;;
16139;SDS011;8175;49.326;12.690;2023-07-24T11:54:29;5.65;;;4.68;;
16139;SDS011;8175;49.326;12.690;2023-07-24T11:56:55;4.90;;;4.18;;
16139;SDS011;8175;49.326;12.690;2023-07-24T11:59:21;5.07;;;3.95;;
16139;SDS011;8175;49.326;12.690;2023-07-24T12:01:47;5.10;;;4.20;;
16139;SDS011;8175;49.326;12.690;2023-07-24T12:04:13;5.30;;;4.80;;
16139;SDS011;8175;49.326;12.690;2023-07-24T12:06:40;6.10;;;4.35;;
16139;SDS011;8175;49.326;12.690;2023-07-24T12:09:05;4.55;;;3.95;;
16139;SDS011;8175;49.326;12.690;2023-07-24T12:11:31;4.97;;;4.47;;
16139;SDS011;8175;49.326;12.690;2023-07-24T12:13:58;5.78;;;4.60;;
16139;SDS011;8175;49.326;12.690;2023-07-24T12:16:23;5.85;;;4.65;;
16139;SDS011;8175;49.326;12.690;2023-07-24T12:18:49;5.80;;;4.85;;
16139;SDS011;8175;49.326;12.690;2023-07-24T12:21:15;5.70;;;4.95;;
16139;SDS011;8175;49.326;12.690;2023-07-24T12:23:40;5.28;;;4.78;;
16139;SDS011;8175;49.326;12.690;2023-07-24T12:26:06;5.72;;;4.82;;
16139;SDS011;8175;49.326;12.690;2023-07-24T12:28:32;5.40;;;4.80;;
16139;SDS011;8175;49.326;12.690;2023-07-24T12:30:58;5.00;;;4.15;;
16139;SDS011;8175;49.326;12.690;2023-07-24T12:33:23;5.63;;;4.90;;
16139;SDS011;8175;49.326;12.690;2023-07-24T12:35:49;5.40;;;4.18;;
16139;SDS011;8175;49.326;12.690;2023-07-24T12:38:15;6.25;;;4.68;;
16139;SDS011;8175;49.326;12.690;2023-07-24T12:40:41;4.88;;;4.30;;
16139;SDS011;8175;49.326;12.690;2023-07-24T12:43:07;7.68;;;5.22;;
16139;SDS011;8175;49.326;12.690;2023-07-24T12:45:32;6.82;;;5.47;;
16139;SDS011;8175;49.326;12.690;2023-07-24T12:47:58;4.25;;;3.78;;
16139;SDS011;8175;49.326;12.690;2023-07-24T12:50:24;4.03;;;2.85;;
16139;SDS011;8175;49.326;12.690;2023-07-24T12:52:50;3.47;;;2.38;;
16139;SDS011;8175;49.326;12.690;2023-07-24T12:55:15;5.47;;;2.63;;
16139;SDS011;8175;49.326;12.690;2023-07-24T12:57:41;4.20;;;2.92;;
16139;SDS011;8175;49.326;12.690;2023-07-24T13:00:07;3.17;;;2.40;;
16139;SDS011;8175;49.326;12.690;2023-07-24T13:02:34;3.95;;;3.10;;
16139;SDS011;8175;49.326;12.690;2023-07-24T13:05:00;6.13;;;4.40;;
16139;SDS011;8175;49.326;12.690;2023-07-24T13:07:25;6.10;;;4.53;;
16139;SDS011;8175;49.326;12.690;2023-07-24T13:09:51;10.63;;;5.83;;
16139;SDS011;8175;49.326;12.690;2023-07-24T13:12:17;12.40;;;7.13;;
16139;SDS011;8175;49.326;12.690;2023-07-24T13:14:43;12.30;;;8.43;;
16139;SDS011;8175;49.326;12.690;2023-07-24T13:17:09;11.57;;;8.90;;
16139;SDS011;8175;49.326;12.690;2023-07-24T13:19:35;12.53;;;7.70;;
16139;SDS011;8175;49.326;12.690;2023-07-24T13:22:00;10.43;;;7.20;;
16139;SDS011;8175;49.326;12.690;2023-07-24T13:24:26;9.97;;;7.63;;
16139;SDS011;8175;49.326;12.690;2023-07-24T13:26:52;12.90;;;9.00;;
16139;SDS011;8175;49.326;12.690;2023-07-24T13:29:17;12.20;;;9.97;;
16139;SDS011;8175;49.326;12.690;2023-07-24T13:31:43;12.07;;;9.83;;
16139;SDS011;8175;49.326;12.690;2023-07-24T13:34:09;11.90;;;9.90;;
16139;SDS011;8175;49.326;12.690;2023-07-24T13:36:35;14.00;;;10.77;;
16139;SDS011;8175;49.326;12.690;2023-07-24T13:39:00;14.70;;;9.53;;
16139;SDS011;8175;49.326;12.690;2023-07-24T13:41:26;11.30;;;8.33;;
16139;SDS011;8175;49.326;12.690;2023-07-24T13:43:52;11.00;;;8.73;;
16139;SDS011;8175;49.326;12.690;2023-07-24T13:46:18;12.17;;;9.13;;
16139;SDS011;8175;49.326;12.690;2023-07-24T13:48:43;9.77;;;8.13;;
16139;SDS011;8175;49.326;12.690;2023-07-24T13:51:09;10.33;;;8.30;;
16139;SDS011;8175;49.326;12.690;2023-07-24T13:53:35;11.10;;;7.83;;
16139;SDS011;8175;49.326;12.690;2023-07-24T13:56:01;11.03;;;8.63;;
16139;SDS011;8175;49.326;12.690;2023-07-24T13:58:27;9.03;;;7.90;;
16139;SDS011;8175;49.326;12.690;2023-07-24T14:00:53;8.57;;;7.57;;
16139;SDS011;8175;49.326;12.690;2023-07-24T14:03:18;11.23;;;7.87;;
16139;SDS011;8175;49.326;12.690;2023-07-24T14:05:44;10.53;;;7.47;;
16139;SDS011;8175;49.326;12.690;2023-07-24T14:08:09;9.10;;;7.13;;
16139;SDS011;8175;49.326;12.690;2023-07-24T14:10:36;7.97;;;6.57;;
16139;SDS011;8175;49.326;12.690;2023-07-24T14:13:02;9.20;;;6.30;;
16139;SDS011;8175;49.326;12.690;2023-07-24T14:15:29;7.33;;;6.13;;
16139;SDS011;8175;49.326;12.690;2023-07-24T14:17:55;7.07;;;5.90;;
16139;SDS011;8175;49.326;12.690;2023-07-24T14:20:20;8.70;;;5.47;;
16139;SDS011;8175;49.326;12.690;2023-07-24T14:22:46;9.33;;;6.53;;
16139;SDS011;8175;49.326;12.690;2023-07-24T14:25:11;7.37;;;5.70;;
16139;SDS011;8175;49.326;12.690;2023-07-24T14:27:37;8.80;;;6.83;;
16139;SDS011;8175;49.326;12.690;2023-07-24T14:30:03;7.13;;;6.30;;
16139;SDS011;8175;49.326;12.690;2023-07-24T14:32:29;6.80;;;5.95;;
16139;SDS011;8175;49.326;12.690;2023-07-24T14:34:55;6.95;;;6.22;;
16139;SDS011;8175;49.326;12.690;2023-07-24T14:37:20;6.63;;;5.93;;
16139;SDS011;8175;49.326;12.690;2023-07-24T14:39:46;8.32;;;6.32;;
16139;SDS011;8175;49.326;12.690;2023-07-24T14:42:12;8.35;;;6.63;;
16139;SDS011;8175;49.326;12.690;2023-07-24T14:44:38;6.45;;;5.72;;
16139;SDS011;8175;49.326;12.690;2023-07-24T14:47:04;7.38;;;6.13;;
16139;SDS011;8175;49.326;12.690;2023-07-24T14:49:30;7.10;;;6.10;;
16139;SDS011;8175;49.326;12.690;2023-07-24T14:51:55;7.35;;;6.15;;
16139;SDS011;8175;49.326;12.690;2023-07-24T14:54:21;6.10;;;5.50;;
16139;SDS011;8175;49.326;12.690;2023-07-24T14:56:47;6.45;;;5.82;;
16139;SDS011;8175;49.326;12.690;2023-07-24T14:59:13;8.88;;;6.05;;
16139;SDS011;8175;49.326;12.690;2023-07-24T15:01:39;6.75;;;5.25;;
16139;SDS011;8175;49.326;12.690;2023-07-24T15:04:05;6.70;;;5.32;;
16139;SDS011;8175;49.326;12.690;2023-07-24T15:06:30;5.93;;;5.32;;
16139;SDS011;8175;49.326;12.690;2023-07-24T15:08:57;8.13;;;5.63;;
16139;SDS011;8175;49.326;12.690;2023-07-24T15:11:22;7.40;;;5.85;;
16139;SDS011;8175;49.326;12.690;2023-07-24T15:13:49;6.05;;;5.45;;
16139;SDS011;8175;49.326;12.690;2023-07-24T15:16:16;5.57;;;4.97;;
16139;SDS011;8175;49.326;12.690;2023-07-24T15:18:41;7.80;;;5.63;;
16139;SDS011;8175;49.326;12.690;2023-07-24T15:21:07;6.43;;;5.60;;
16139;SDS011;8175;49.326;12.690;2023-07-24T15:23:34;6.53;;;5.65;;
16139;SDS011;8175;49.326;12.690;2023-07-24T15:26:00;6.43;;;5.53;;
16139;SDS011;8175;49.326;12.690;2023-07-24T15:28:25;6.13;;;5.53;;
16139;SDS011;8175;49.326;12.690;2023-07-24T15:30:51;6.43;;;5.82;;
16139;SDS011;8175;49.326;12.690;2023-07-24T15:33:17;6.18;;;5.57;;
16139;SDS011;8175;49.326;12.690;2023-07-24T15:35:43;6.28;;;5.47;;
16139;SDS011;8175;49.326;12.690;2023-07-24T15:38:09;7.20;;;6.10;;
16139;SDS011;8175;49.326;12.690;2023-07-24T15:40:34;6.88;;;5.63;;
16139;SDS011;8175;49.326;12.690;2023-07-24T15:43:02;6.15;;;5.53;;
16139;SDS011;8175;49.326;12.690;2023-07-24T15:45:28;6.22;;;5.30;;
16139;SDS011;8175;49.326;12.690;2023-07-24T15:47:54;5.25;;;4.75;;
16139;SDS011;8175;49.326;12.690;2023-07-24T15:50:19;5.38;;;4.88;;
16139;SDS011;8175;49.326;12.690;2023-07-24T15:52:45;5.05;;;4.55;;
16139;SDS011;8175;49.326;12.690;2023-07-24T15:55:11;5.57;;;4.57;;
16139;SDS011;8175;49.326;12.690;2023-07-24T15:57:36;4.70;;;4.25;;
16139;SDS011;8175;49.326;12.690;2023-07-24T16:00:02;5.70;;;4.72;;
16139;SDS011;8175;49.326;12.690;2023-07-24T16:02:30;5.30;;;4.80;;
16139;SDS011;8175;49.326;12.690;2023-07-24T16:04:55;7.95;;;4.70;;
16139;SDS011;8175;49.326;12.690;2023-07-24T16:07:21;6.05;;;4.90;;
16139;SDS011;8175;49.326;12.690;2023-07-24T16:09:47;5.07;;;4.57;;
16139;SDS011;8175;49.326;12.690;2023-07-24T16:12:12;5.15;;;4.18;;
16139;SDS011;8175;49.326;12.690;2023-07-24T16:14:38;5.15;;;4.40;;
16139;SDS011;8175;49.326;12.690;2023-07-24T16:17:04;5.22;;;4.40;;
16139;SDS011;8175;49.326;12.690;2023-07-24T16:19:30;5.53;;;4.10;;
16139;SDS011;8175;49.326;12.690;2023-07-24T16:21:55;5.18;;;4.00;;
16139;SDS011;8175;49.326;12.690;2023-07-24T16:24:21;4.17;;;3.77;;
16139;SDS011;8175;49.326;12.690;2023-07-24T16:26:47;4.70;;;4.20;;
16139;SDS011;8175;49.326;12.690;2023-07-24T16:29:14;3.83;;;3.37;;
16139;SDS011;8175;49.326;12.690;2023-07-24T16:31:40;4.67;;;3.70;;
16139;SDS011;8175;49.326;12.690;2023-07-24T16:34:06;5.30;;;4.30;;
16139;SDS011;8175;49.326;12.690;2023-07-24T16:36:32;4.83;;;4.00;;
16139;SDS011;8175;49.326;12.690;2023-07-24T16:38:59;4.77;;;4.30;;
16139;SDS011;8175;49.326;12.690;2023-07-24T16:41:29;4.60;;;4.17;;
16139;SDS011;8175;49.326;12.690;2023-07-24T16:43:54;4.50;;;4.00;;
16139;SDS011;8175;49.326;12.690;2023-07-24T16:46:20;5.17;;;4.17;;
16139;SDS011;8175;49.326;12.690;2023-07-24T16:48:46;5.00;;;3.93;;
16139;SDS011;8175;49.326;12.690;2023-07-24T16:51:15;5.77;;;4.30;;
16139;SDS011;8175;49.326;12.690;2023-07-24T16:53:41;5.97;;;4.60;;
16139;SDS011;8175;49.326;12.690;2023-07-24T16:56:07;5.53;;;4.33;;
16139;SDS011;8175;49.326;12.690;2023-07-24T16:58:34;4.77;;;4.20;;
16139;SDS011;8175;49.326;12.690;2023-07-24T17:01:00;5.13;;;4.60;;
16139;SDS011;8175;49.326;12.690;2023-07-24T17:03:26;4.37;;;3.97;;
16139;SDS011;8175;49.326;12.690;2023-07-24T17:05:52;6.30;;;4.03;;
16139;SDS011;8175;49.326;12.690;2023-07-24T17:08:17;4.93;;;4.33;;
16139;SDS011;8175;49.326;12.690;2023-07-24T17:10:44;5.23;;;4.40;;
16139;SDS011;8175;49.326;12.690;2023-07-24T17:13:12;4.17;;;3.77;;
16139;SDS011;8175;49.326;12.690;2023-07-24T17:15:38;5.10;;;3.90;;
16139;SDS011;8175;49.326;12.690;2023-07-24T17:18:04;5.13;;;4.17;;
16139;SDS011;8175;49.326;12.690;2023-07-24T17:20:30;4.43;;;3.97;;
16139;SDS011;8175;49.326;12.690;2023-07-24T17:22:56;5.47;;;4.33;;
16139;SDS011;8175;49.326;12.690;2023-07-24T17:25:22;5.00;;;3.90;;
16139;SDS011;8175;49.326;12.690;2023-07-24T17:27:49;5.13;;;4.13;;
16139;SDS011;8175;49.326;12.690;2023-07-24T17:30:15;4.40;;;3.73;;
16139;SDS011;8175;49.326;12.690;2023-07-24T17:32:41;5.00;;;3.40;;
16139;SDS011;8175;49.326;12.690;2023-07-24T17:35:07;4.27;;;3.70;;
16139;SDS011;8175;49.326;12.690;2023-07-24T17:37:34;4.67;;;4.17;;
16139;SDS011;8175;49.326;12.690;2023-07-24T17:40:00;4.30;;;3.90;;
16139;SDS011;8175;49.326;12.690;2023-07-24T17:42:26;4.93;;;3.83;;
16139;SDS011;8175;49.326;12.690;2023-07-24T17:44:52;4.70;;;3.90;;
16139;SDS011;8175;49.326;12.690;2023-07-24T17:47:18;5.10;;;3.83;;
16139;SDS011;8175;49.326;12.690;2023-07-24T17:49:43;4.03;;;3.63;;
16139;SDS011;8175;49.326;12.690;2023-07-24T17:52:10;4.37;;;3.43;;
16139;SDS011;8175;49.326;12.690;2023-07-24T17:54:36;4.13;;;3.57;;
16139;SDS011;8175;49.326;12.690;2023-07-24T17:57:05;4.77;;;3.33;;
16139;SDS011;8175;49.326;12.690;2023-07-24T17:59:31;4.77;;;3.70;;
16139;SDS011;8175;49.326;12.690;2023-07-24T18:01:57;4.03;;;3.63;;
16139;SDS011;8175;49.326;12.690;2023-07-24T18:04:22;4.23;;;3.50;;
16139;SDS011;8175;49.326;12.690;2023-07-24T18:06:48;4.27;;;3.57;;
16139;SDS011;8175;49.326;12.690;2023-07-24T18:09:14;4.47;;;3.43;;
16139;SDS011;8175;49.326;12.690;2023-07-24T18:11:39;5.13;;;3.37;;
16139;SDS011;8175;49.326;12.690;2023-07-24T18:14:05;3.83;;;3.40;;
16139;SDS011;8175;49.326;12.690;2023-07-24T18:16:30;5.17;;;3.87;;
16139;SDS011;8175;49.326;12.690;2023-07-24T18:18:56;4.03;;;3.20;;
16139;SDS011;8175;49.326;12.690;2023-07-24T18:21:22;4.03;;;3.50;;
16139;SDS011;8175;49.326;12.690;2023-07-24T18:23:47;4.57;;;3.30;;
16139;SDS011;8175;49.326;12.690;2023-07-24T18:26:13;3.90;;;3.10;;
16139;SDS011;8175;49.326;12.690;2023-07-24T18:28:39;4.63;;;3.50;;
16139;SDS011;8175;49.326;12.690;2023-07-24T18:31:04;3.60;;;2.90;;
16139;SDS011;8175;49.326;12.690;2023-07-24T18:33:31;3.70;;;3.13;;
16139;SDS011;8175;49.326;12.690;2023-07-24T18:35:57;4.47;;;3.23;;
16139;SDS011;8175;49.326;12.690;2023-07-24T18:38:22;4.30;;;3.00;;
16139;SDS011;8175;49.326;12.690;2023-07-24T18:40:48;3.30;;;3.00;;
16139;SDS011;8175;49.326;12.690;2023-07-24T18:43:14;2.93;;;2.63;;
16139;SDS011;8175;49.326;12.690;2023-07-24T18:45:39;3.07;;;2.77;;
16139;SDS011;8175;49.326;12.690;2023-07-24T18:48:05;3.10;;;2.53;;
16139;SDS011;8175;49.326;12.690;2023-07-24T18:50:32;4.60;;;3.20;;
16139;SDS011;8175;49.326;12.690;2023-07-24T18:52:57;3.40;;;3.10;;
16139;SDS011;8175;49.326;12.690;2023-07-24T18:55:23;3.10;;;2.80;;
16139;SDS011;8175;49.326;12.690;2023-07-24T18:57:49;4.63;;;3.00;;
16139;SDS011;8175;49.326;12.690;2023-07-24T19:00:14;3.90;;;3.13;;
16139;SDS011;8175;49.326;12.690;2023-07-24T19:02:42;3.93;;;3.30;;
16139;SDS011;8175;49.326;12.690;2023-07-24T19:05:07;3.33;;;2.33;;
16139;SDS011;8175;49.326;12.690;2023-07-24T19:07:33;4.03;;;2.63;;
16139;SDS011;8175;49.326;12.690;2023-07-24T19:09:59;4.97;;;2.63;;